sensor_id;sensor_type;location;lat;lon;timestamp;P1;durP1;ratioP1;P2;durP2;ratioP2
16579;SDS011;8402;51.466;6.806;2022-08-06T00:02:09;3.63;;;1.40;;
16579;SDS011;8402;51.466;6.806;2022-08-06T00:04:39;4.57;;;1.60;;
16579;SDS011;8402;51.466;6.806;2022-08-06T00:07:08;4.23;;;1.60;;
16579;SDS011;8402;51.466;6.806;2022-08-06T00:09:47;6.10;;;1.83;;
16579;SDS011;8402;51.466;6.806;2022-08-06T00:12:26;2.43;;;1.37;;
16579;SDS011;8402;51.466;6.806;2022-08-06T00:14:55;4.60;;;1.50;;
16579;SDS011;8402;51.466;6.806;2022-08-06T00:17:25;2.37;;;1.50;;
16579;SDS011;8402;51.466;6.806;2022-08-06T00:19:58;2.93;;;1.60;;
16579;SDS011;8402;51.466;6.806;2022-08-06T00:22:26;5.20;;;1.40;;
16579;SDS011;8402;51.466;6.806;2022-08-06T00:24:55;4.13;;;1.33;;
16579;SDS011;8402;51.466;6.806;2022-08-06T00:27:23;5.13;;;1.40;;
16579;SDS011;8402;51.466;6.806;2022-08-06T00:30:04;3.07;;;1.50;;
16579;SDS011;8402;51.466;6.806;2022-08-06T00:32:47;3.87;;;1.40;;
16579;SDS011;8402;51.466;6.806;2022-08-06T00:35:18;4.23;;;1.50;;
16579;SDS011;8402;51.466;6.806;2022-08-06T00:37:49;6.33;;;1.63;;
16579;SDS011;8402;51.466;6.806;2022-08-06T00:40:24;5.10;;;1.80;;
16579;SDS011;8402;51.466;6.806;2022-08-06T00:42:56;3.43;;;1.40;;
16579;SDS011;8402;51.466;6.806;2022-08-06T00:45:27;5.93;;;1.60;;
16579;SDS011;8402;51.466;6.806;2022-08-06T00:47:58;4.40;;;1.60;;
16579;SDS011;8402;51.466;6.806;2022-08-06T00:50:33;6.93;;;1.40;;
16579;SDS011;8402;51.466;6.806;2022-08-06T00:53:03;2.40;;;1.50;;
16579;SDS011;8402;51.466;6.806;2022-08-06T00:55:39;3.37;;;1.40;;
16579;SDS011;8402;51.466;6.806;2022-08-06T00:58:26;6.77;;;1.60;;
16579;SDS011;8402;51.466;6.806;2022-08-06T01:01:06;4.03;;;1.30;;
16579;SDS011;8402;51.466;6.806;2022-08-06T01:03:45;3.63;;;1.33;;
16579;SDS011;8402;51.466;6.806;2022-08-06T01:06:17;4.03;;;1.50;;
16579;SDS011;8402;51.466;6.806;2022-08-06T01:09:06;6.97;;;1.50;;
16579;SDS011;8402;51.466;6.806;2022-08-06T01:11:35;3.60;;;1.40;;
16579;SDS011;8402;51.466;6.806;2022-08-06T01:14:03;6.10;;;1.50;;
16579;SDS011;8402;51.466;6.806;2022-08-06T01:16:38;5.50;;;1.40;;
16579;SDS011;8402;51.466;6.806;2022-08-06T01:22:42;2.97;;;1.57;;
16579;SDS011;8402;51.466;6.806;2022-08-06T01:25:35;2.43;;;1.37;;
16579;SDS011;8402;51.466;6.806;2022-08-06T01:28:16;5.00;;;1.40;;
16579;SDS011;8402;51.466;6.806;2022-08-06T01:30:57;3.07;;;1.70;;
16579;SDS011;8402;51.466;6.806;2022-08-06T01:33:33;3.90;;;1.83;;
16579;SDS011;8402;51.466;6.806;2022-08-06T01:36:07;6.90;;;1.67;;
16579;SDS011;8402;51.466;6.806;2022-08-06T01:38:43;5.87;;;1.60;;
16579;SDS011;8402;51.466;6.806;2022-08-06T01:41:27;4.20;;;1.73;;
16579;SDS011;8402;51.466;6.806;2022-08-06T01:44:27;7.00;;;1.80;;
16579;SDS011;8402;51.466;6.806;2022-08-06T01:47:00;4.20;;;2.07;;
16579;SDS011;8402;51.466;6.806;2022-08-06T01:49:42;4.27;;;1.70;;
16579;SDS011;8402;51.466;6.806;2022-08-06T01:52:28;5.27;;;2.00;;
16579;SDS011;8402;51.466;6.806;2022-08-06T01:55:02;3.30;;;1.70;;
16579;SDS011;8402;51.466;6.806;2022-08-06T01:57:38;6.30;;;1.97;;
16579;SDS011;8402;51.466;6.806;2022-08-06T02:00:29;6.10;;;1.90;;
16579;SDS011;8402;51.466;6.806;2022-08-06T02:03:03;4.63;;;2.03;;
16579;SDS011;8402;51.466;6.806;2022-08-06T02:05:35;4.10;;;1.77;;
16579;SDS011;8402;51.466;6.806;2022-08-06T02:08:19;5.80;;;1.57;;
16579;SDS011;8402;51.466;6.806;2022-08-06T02:11:05;3.83;;;1.50;;
16579;SDS011;8402;51.466;6.806;2022-08-06T02:13:55;3.67;;;1.97;;
16579;SDS011;8402;51.466;6.806;2022-08-06T02:16:27;8.13;;;1.70;;
16579;SDS011;8402;51.466;6.806;2022-08-06T02:18:57;3.13;;;1.73;;
16579;SDS011;8402;51.466;6.806;2022-08-06T02:21:39;3.03;;;1.73;;
16579;SDS011;8402;51.466;6.806;2022-08-06T02:24:15;6.23;;;1.90;;
16579;SDS011;8402;51.466;6.806;2022-08-06T02:26:45;3.00;;;1.60;;
16579;SDS011;8402;51.466;6.806;2022-08-06T02:29:16;4.90;;;2.00;;
16579;SDS011;8402;51.466;6.806;2022-08-06T02:31:48;3.30;;;1.87;;
16579;SDS011;8402;51.466;6.806;2022-08-06T02:34:18;4.07;;;1.87;;
16579;SDS011;8402;51.466;6.806;2022-08-06T02:36:56;4.23;;;2.00;;
16579;SDS011;8402;51.466;6.806;2022-08-06T02:39:32;2.73;;;1.87;;
16579;SDS011;8402;51.466;6.806;2022-08-06T02:42:19;6.03;;;2.40;;
16579;SDS011;8402;51.466;6.806;2022-08-06T02:44:56;2.70;;;1.60;;
16579;SDS011;8402;51.466;6.806;2022-08-06T02:47:30;2.20;;;1.70;;
16579;SDS011;8402;51.466;6.806;2022-08-06T02:50:24;2.67;;;1.80;;
16579;SDS011;8402;51.466;6.806;2022-08-06T02:53:03;2.23;;;1.73;;
16579;SDS011;8402;51.466;6.806;2022-08-06T02:55:51;6.53;;;2.03;;
16579;SDS011;8402;51.466;6.806;2022-08-06T02:58:24;3.10;;;2.13;;
16579;SDS011;8402;51.466;6.806;2022-08-06T03:01:05;4.77;;;2.03;;
16579;SDS011;8402;51.466;6.806;2022-08-06T03:03:38;3.07;;;1.87;;
16579;SDS011;8402;51.466;6.806;2022-08-06T03:06:25;3.17;;;2.00;;
16579;SDS011;8402;51.466;6.806;2022-08-06T03:08:56;3.87;;;1.77;;
16579;SDS011;8402;51.466;6.806;2022-08-06T03:11:28;6.57;;;2.10;;
16579;SDS011;8402;51.466;6.806;2022-08-06T03:14:00;4.03;;;2.17;;
16579;SDS011;8402;51.466;6.806;2022-08-06T03:16:49;11.23;;;2.30;;
16579;SDS011;8402;51.466;6.806;2022-08-06T03:19:24;2.97;;;1.83;;
16579;SDS011;8402;51.466;6.806;2022-08-06T03:22:14;3.53;;;1.90;;
16579;SDS011;8402;51.466;6.806;2022-08-06T03:25:03;3.70;;;1.93;;
16579;SDS011;8402;51.466;6.806;2022-08-06T03:27:34;5.00;;;2.07;;
16579;SDS011;8402;51.466;6.806;2022-08-06T03:30:09;3.60;;;2.00;;
16579;SDS011;8402;51.466;6.806;2022-08-06T03:32:58;4.10;;;2.07;;
16579;SDS011;8402;51.466;6.806;2022-08-06T03:35:40;6.37;;;2.23;;
16579;SDS011;8402;51.466;6.806;2022-08-06T03:38:16;4.27;;;2.03;;
16579;SDS011;8402;51.466;6.806;2022-08-06T03:40:45;3.10;;;2.10;;
16579;SDS011;8402;51.466;6.806;2022-08-06T03:43:15;4.33;;;2.10;;
16579;SDS011;8402;51.466;6.806;2022-08-06T03:46:02;4.93;;;2.10;;
16579;SDS011;8402;51.466;6.806;2022-08-06T03:48:36;3.10;;;2.00;;
16579;SDS011;8402;51.466;6.806;2022-08-06T03:51:10;3.93;;;2.00;;
16579;SDS011;8402;51.466;6.806;2022-08-06T03:53:39;5.00;;;2.13;;
16579;SDS011;8402;51.466;6.806;2022-08-06T03:56:18;7.23;;;2.30;;
16579;SDS011;8402;51.466;6.806;2022-08-06T03:58:56;4.27;;;1.93;;
16579;SDS011;8402;51.466;6.806;2022-08-06T04:01:31;6.87;;;2.00;;
16579;SDS011;8402;51.466;6.806;2022-08-06T04:04:15;4.43;;;2.13;;
16579;SDS011;8402;51.466;6.806;2022-08-06T04:06:54;5.60;;;2.17;;
16579;SDS011;8402;51.466;6.806;2022-08-06T04:09:24;5.03;;;2.20;;
16579;SDS011;8402;51.466;6.806;2022-08-06T04:12:13;3.53;;;2.07;;
16579;SDS011;8402;51.466;6.806;2022-08-06T04:15:02;4.77;;;2.10;;
16579;SDS011;8402;51.466;6.806;2022-08-06T04:17:34;5.53;;;2.53;;
16579;SDS011;8402;51.466;6.806;2022-08-06T04:20:08;4.17;;;2.00;;
16579;SDS011;8402;51.466;6.806;2022-08-06T04:22:39;7.40;;;2.80;;
16579;SDS011;8402;51.466;6.806;2022-08-06T04:25:27;12.80;;;2.10;;
16579;SDS011;8402;51.466;6.806;2022-08-06T04:28:02;4.23;;;2.30;;
16579;SDS011;8402;51.466;6.806;2022-08-06T04:30:32;5.60;;;2.60;;
16579;SDS011;8402;51.466;6.806;2022-08-06T04:33:04;7.20;;;3.20;;
16579;SDS011;8402;51.466;6.806;2022-08-06T04:35:37;6.80;;;3.00;;
16579;SDS011;8402;51.466;6.806;2022-08-06T04:38:27;4.93;;;2.70;;
16579;SDS011;8402;51.466;6.806;2022-08-06T04:40:56;7.50;;;2.80;;
16579;SDS011;8402;51.466;6.806;2022-08-06T04:43:34;6.53;;;2.70;;
16579;SDS011;8402;51.466;6.806;2022-08-06T04:46:18;7.93;;;2.80;;
16579;SDS011;8402;51.466;6.806;2022-08-06T04:48:47;8.00;;;2.67;;
16579;SDS011;8402;51.466;6.806;2022-08-06T04:51:25;5.03;;;2.50;;
16579;SDS011;8402;51.466;6.806;2022-08-06T04:54:15;7.73;;;2.70;;
16579;SDS011;8402;51.466;6.806;2022-08-06T04:56:47;10.30;;;2.90;;
16579;SDS011;8402;51.466;6.806;2022-08-06T04:59:15;6.17;;;2.70;;
16579;SDS011;8402;51.466;6.806;2022-08-06T05:01:44;5.27;;;2.40;;
16579;SDS011;8402;51.466;6.806;2022-08-06T05:04:25;7.17;;;2.60;;
16579;SDS011;8402;51.466;6.806;2022-08-06T05:07:00;5.90;;;2.27;;
16579;SDS011;8402;51.466;6.806;2022-08-06T05:09:40;7.30;;;3.20;;
16579;SDS011;8402;51.466;6.806;2022-08-06T05:12:20;5.60;;;2.63;;
16579;SDS011;8402;51.466;6.806;2022-08-06T05:14:53;4.37;;;2.80;;
16579;SDS011;8402;51.466;6.806;2022-08-06T05:17:24;6.30;;;2.70;;
16579;SDS011;8402;51.466;6.806;2022-08-06T05:20:00;10.70;;;3.10;;
16579;SDS011;8402;51.466;6.806;2022-08-06T05:22:38;7.57;;;2.73;;
16579;SDS011;8402;51.466;6.806;2022-08-06T05:25:21;7.20;;;3.00;;
16579;SDS011;8402;51.466;6.806;2022-08-06T05:27:53;5.43;;;2.80;;
16579;SDS011;8402;51.466;6.806;2022-08-06T05:30:41;6.63;;;2.90;;
16579;SDS011;8402;51.466;6.806;2022-08-06T05:33:10;6.87;;;2.57;;
16579;SDS011;8402;51.466;6.806;2022-08-06T05:35:42;7.87;;;3.03;;
16579;SDS011;8402;51.466;6.806;2022-08-06T05:38:26;7.50;;;3.07;;
16579;SDS011;8402;51.466;6.806;2022-08-06T05:40:59;7.80;;;3.23;;
16579;SDS011;8402;51.466;6.806;2022-08-06T05:43:27;6.13;;;3.30;;
16579;SDS011;8402;51.466;6.806;2022-08-06T05:46:15;9.77;;;3.53;;
16579;SDS011;8402;51.466;6.806;2022-08-06T05:48:53;7.13;;;3.07;;
16579;SDS011;8402;51.466;6.806;2022-08-06T05:51:25;8.07;;;3.10;;
16579;SDS011;8402;51.466;6.806;2022-08-06T05:54:16;7.47;;;3.10;;
16579;SDS011;8402;51.466;6.806;2022-08-06T05:56:50;7.13;;;3.03;;
16579;SDS011;8402;51.466;6.806;2022-08-06T05:59:30;9.77;;;3.63;;
16579;SDS011;8402;51.466;6.806;2022-08-06T06:02:21;7.47;;;3.37;;
16579;SDS011;8402;51.466;6.806;2022-08-06T06:04:51;6.27;;;3.07;;
16579;SDS011;8402;51.466;6.806;2022-08-06T06:07:40;6.03;;;3.20;;
16579;SDS011;8402;51.466;6.806;2022-08-06T06:10:29;9.67;;;3.67;;
16579;SDS011;8402;51.466;6.806;2022-08-06T06:13:01;6.83;;;3.47;;
16579;SDS011;8402;51.466;6.806;2022-08-06T06:15:51;8.93;;;3.57;;
16579;SDS011;8402;51.466;6.806;2022-08-06T06:18:33;12.27;;;2.90;;
16579;SDS011;8402;51.466;6.806;2022-08-06T06:21:23;5.40;;;2.70;;
16579;SDS011;8402;51.466;6.806;2022-08-06T06:24:06;5.90;;;2.87;;
16579;SDS011;8402;51.466;6.806;2022-08-06T06:26:45;7.07;;;2.90;;
16579;SDS011;8402;51.466;6.806;2022-08-06T06:29:20;4.83;;;2.83;;
16579;SDS011;8402;51.466;6.806;2022-08-06T06:32:21;5.43;;;2.47;;
16579;SDS011;8402;51.466;6.806;2022-08-06T06:34:58;6.23;;;2.30;;
16579;SDS011;8402;51.466;6.806;2022-08-06T06:37:34;4.40;;;2.00;;
16579;SDS011;8402;51.466;6.806;2022-08-06T06:40:09;6.10;;;2.00;;
16579;SDS011;8402;51.466;6.806;2022-08-06T06:42:48;3.53;;;1.77;;
16579;SDS011;8402;51.466;6.806;2022-08-06T06:45:30;6.37;;;2.27;;
16579;SDS011;8402;51.466;6.806;2022-08-06T06:48:23;3.50;;;1.60;;
16579;SDS011;8402;51.466;6.806;2022-08-06T06:50:59;4.33;;;1.37;;
16579;SDS011;8402;51.466;6.806;2022-08-06T06:53:35;3.73;;;1.60;;
16579;SDS011;8402;51.466;6.806;2022-08-06T06:56:29;1.70;;;1.30;;
16579;SDS011;8402;51.466;6.806;2022-08-06T06:59:02;3.73;;;1.23;;
16579;SDS011;8402;51.466;6.806;2022-08-06T07:01:43;3.10;;;1.40;;
16579;SDS011;8402;51.466;6.806;2022-08-06T07:04:20;4.97;;;1.10;;
16579;SDS011;8402;51.466;6.806;2022-08-06T07:06:53;7.70;;;1.50;;
16579;SDS011;8402;51.466;6.806;2022-08-06T07:09:33;4.53;;;1.37;;
16579;SDS011;8402;51.466;6.806;2022-08-06T07:12:09;3.30;;;1.20;;
16579;SDS011;8402;51.466;6.806;2022-08-06T07:14:45;4.23;;;0.80;;
16579;SDS011;8402;51.466;6.806;2022-08-06T07:17:29;3.90;;;0.80;;
16579;SDS011;8402;51.466;6.806;2022-08-06T07:20:21;4.18;;;0.80;;
16579;SDS011;8402;51.466;6.806;2022-08-06T07:22:55;2.33;;;0.80;;
16579;SDS011;8402;51.466;6.806;2022-08-06T07:25:47;3.30;;;0.90;;
16579;SDS011;8402;51.466;6.806;2022-08-06T07:28:20;1.40;;;0.80;;
16579;SDS011;8402;51.466;6.806;2022-08-06T07:30:54;4.22;;;0.68;;
16579;SDS011;8402;51.466;6.806;2022-08-06T07:33:34;2.40;;;0.60;;
16579;SDS011;8402;51.466;6.806;2022-08-06T07:36:24;3.53;;;0.73;;
16579;SDS011;8402;51.466;6.806;2022-08-06T07:38:56;1.58;;;0.80;;
16579;SDS011;8402;51.466;6.806;2022-08-06T07:41:29;2.63;;;0.65;;
16579;SDS011;8402;51.466;6.806;2022-08-06T07:44:18;2.40;;;0.60;;
16579;SDS011;8402;51.466;6.806;2022-08-06T07:46:56;0.47;;;0.47;;
16579;SDS011;8402;51.466;6.806;2022-08-06T07:49:50;1.50;;;0.73;;
16579;SDS011;8402;51.466;6.806;2022-08-06T07:52:26;0.75;;;0.40;;
16579;SDS011;8402;51.466;6.806;2022-08-06T07:54:56;2.33;;;0.52;;
16579;SDS011;8402;51.466;6.806;2022-08-06T07:57:28;1.80;;;0.40;;
16579;SDS011;8402;51.466;6.806;2022-08-06T08:00:18;0.95;;;0.40;;
16579;SDS011;8402;51.466;6.806;2022-08-06T08:02:46;1.92;;;0.40;;
16579;SDS011;8402;51.466;6.806;2022-08-06T08:05:30;1.45;;;0.40;;
16579;SDS011;8402;51.466;6.806;2022-08-06T08:08:26;0.80;;;0.60;;
16579;SDS011;8402;51.466;6.806;2022-08-06T08:10:59;0.93;;;0.45;;
16579;SDS011;8402;51.466;6.806;2022-08-06T08:13:28;1.58;;;0.52;;
16579;SDS011;8402;51.466;6.806;2022-08-06T08:16:11;0.80;;;0.43;;
16579;SDS011;8402;51.466;6.806;2022-08-06T08:18:45;0.95;;;0.50;;
16579;SDS011;8402;51.466;6.806;2022-08-06T08:21:18;2.67;;;0.65;;
16579;SDS011;8402;51.466;6.806;2022-08-06T08:23:48;1.23;;;0.60;;
16579;SDS011;8402;51.466;6.806;2022-08-06T08:26:21;3.00;;;0.50;;
16579;SDS011;8402;51.466;6.806;2022-08-06T08:28:51;1.15;;;0.50;;
16579;SDS011;8402;51.466;6.806;2022-08-06T08:31:20;1.27;;;0.40;;
16579;SDS011;8402;51.466;6.806;2022-08-06T08:33:52;1.88;;;0.50;;
16579;SDS011;8402;51.466;6.806;2022-08-06T08:36:21;0.75;;;0.43;;
16579;SDS011;8402;51.466;6.806;2022-08-06T08:38:56;1.60;;;0.60;;
16579;SDS011;8402;51.466;6.806;2022-08-06T08:41:26;3.22;;;0.63;;
16579;SDS011;8402;51.466;6.806;2022-08-06T08:44:14;1.67;;;0.40;;
16579;SDS011;8402;51.466;6.806;2022-08-06T08:46:52;1.02;;;0.63;;
16579;SDS011;8402;51.466;6.806;2022-08-06T08:49:26;5.57;;;0.88;;
16579;SDS011;8402;51.466;6.806;2022-08-06T08:52:01;0.77;;;0.40;;
16579;SDS011;8402;51.466;6.806;2022-08-06T08:54:37;2.50;;;0.60;;
16579;SDS011;8402;51.466;6.806;2022-08-06T08:57:08;1.13;;;0.52;;
16579;SDS011;8402;51.466;6.806;2022-08-06T08:59:57;0.80;;;0.50;;
16579;SDS011;8402;51.466;6.806;2022-08-06T09:02:28;1.30;;;0.52;;
16579;SDS011;8402;51.466;6.806;2022-08-06T09:04:58;1.63;;;0.55;;
16579;SDS011;8402;51.466;6.806;2022-08-06T09:07:28;1.05;;;0.43;;
16579;SDS011;8402;51.466;6.806;2022-08-06T09:10:02;0.90;;;0.40;;
16579;SDS011;8402;51.466;6.806;2022-08-06T09:12:32;1.05;;;0.45;;
16579;SDS011;8402;51.466;6.806;2022-08-06T09:15:12;1.25;;;0.50;;
16579;SDS011;8402;51.466;6.806;2022-08-06T09:17:44;1.95;;;0.73;;
16579;SDS011;8402;51.466;6.806;2022-08-06T09:20:33;2.67;;;0.55;;
16579;SDS011;8402;51.466;6.806;2022-08-06T09:23:08;0.93;;;0.50;;
16579;SDS011;8402;51.466;6.806;2022-08-06T09:25:38;0.55;;;0.40;;
16579;SDS011;8402;51.466;6.806;2022-08-06T09:28:28;4.50;;;0.50;;
16579;SDS011;8402;51.466;6.806;2022-08-06T09:30:58;1.15;;;0.50;;
16579;SDS011;8402;51.466;6.806;2022-08-06T09:33:28;1.15;;;0.50;;
16579;SDS011;8402;51.466;6.806;2022-08-06T09:36:17;1.15;;;0.50;;
16579;SDS011;8402;51.466;6.806;2022-08-06T09:38:58;1.23;;;0.60;;
16579;SDS011;8402;51.466;6.806;2022-08-06T09:41:27;0.65;;;0.40;;
16579;SDS011;8402;51.466;6.806;2022-08-06T09:43:56;1.75;;;0.50;;
16579;SDS011;8402;51.466;6.806;2022-08-06T09:46:36;3.35;;;0.63;;
16579;SDS011;8402;51.466;6.806;2022-08-06T09:49:07;2.15;;;0.52;;
16579;SDS011;8402;51.466;6.806;2022-08-06T09:54:44;2.15;;;0.50;;
16579;SDS011;8402;51.466;6.806;2022-08-06T09:57:19;3.35;;;0.68;;
16579;SDS011;8402;51.466;6.806;2022-08-06T10:00:00;3.33;;;0.75;;
16579;SDS011;8402;51.466;6.806;2022-08-06T10:02:32;1.63;;;0.68;;
16579;SDS011;8402;51.466;6.806;2022-08-06T10:05:08;2.70;;;0.60;;
16579;SDS011;8402;51.466;6.806;2022-08-06T10:07:46;0.85;;;0.57;;
16579;SDS011;8402;51.466;6.806;2022-08-06T10:10:20;4.13;;;1.63;;
16579;SDS011;8402;51.466;6.806;2022-08-06T10:13:15;2.60;;;0.90;;
16579;SDS011;8402;51.466;6.806;2022-08-06T10:15:45;2.13;;;0.70;;
16579;SDS011;8402;51.466;6.806;2022-08-06T10:18:31;4.18;;;0.70;;
16579;SDS011;8402;51.466;6.806;2022-08-06T10:21:21;5.05;;;1.25;;
16579;SDS011;8402;51.466;6.806;2022-08-06T10:23:53;1.42;;;0.63;;
16579;SDS011;8402;51.466;6.806;2022-08-06T10:26:25;1.88;;;0.63;;
16579;SDS011;8402;51.466;6.806;2022-08-06T10:29:03;3.03;;;0.75;;
16579;SDS011;8402;51.466;6.806;2022-08-06T10:31:33;0.70;;;0.50;;
16579;SDS011;8402;51.466;6.806;2022-08-06T10:34:05;1.92;;;0.65;;
16579;SDS011;8402;51.466;6.806;2022-08-06T10:36:39;0.85;;;0.60;;
16579;SDS011;8402;51.466;6.806;2022-08-06T10:39:08;0.80;;;0.43;;
16579;SDS011;8402;51.466;6.806;2022-08-06T10:41:58;2.92;;;0.50;;
16579;SDS011;8402;51.466;6.806;2022-08-06T10:44:43;2.03;;;0.60;;
16579;SDS011;8402;51.466;6.806;2022-08-06T10:47:12;2.15;;;0.50;;
16579;SDS011;8402;51.466;6.806;2022-08-06T10:50:00;1.25;;;0.50;;
16579;SDS011;8402;51.466;6.806;2022-08-06T10:52:49;3.03;;;0.52;;
16579;SDS011;8402;51.466;6.806;2022-08-06T10:55:19;0.68;;;0.55;;
16579;SDS011;8402;51.466;6.806;2022-08-06T10:57:50;0.70;;;0.40;;
16579;SDS011;8402;51.466;6.806;2022-08-06T11:00:18;1.13;;;0.40;;
16579;SDS011;8402;51.466;6.806;2022-08-06T11:02:49;0.70;;;0.55;;
16579;SDS011;8402;51.466;6.806;2022-08-06T11:05:27;0.93;;;0.40;;
16579;SDS011;8402;51.466;6.806;2022-08-06T11:08:22;1.13;;;0.52;;
16579;SDS011;8402;51.466;6.806;2022-08-06T11:11:34;3.05;;;0.68;;
16579;SDS011;8402;51.466;6.806;2022-08-06T11:14:29;0.90;;;0.50;;
16579;SDS011;8402;51.466;6.806;2022-08-06T11:17:03;1.65;;;0.60;;
16579;SDS011;8402;51.466;6.806;2022-08-06T11:19:36;3.45;;;0.63;;
16579;SDS011;8402;51.466;6.806;2022-08-06T11:22:31;1.60;;;0.60;;
16579;SDS011;8402;51.466;6.806;2022-08-06T11:25:01;2.28;;;0.70;;
16579;SDS011;8402;51.466;6.806;2022-08-06T11:27:50;1.27;;;0.63;;
16579;SDS011;8402;51.466;6.806;2022-08-06T11:30:41;3.13;;;0.50;;
16579;SDS011;8402;51.466;6.806;2022-08-06T11:33:13;2.30;;;0.50;;
16579;SDS011;8402;51.466;6.806;2022-08-06T11:35:43;0.65;;;0.50;;
16579;SDS011;8402;51.466;6.806;2022-08-06T11:41:43;2.72;;;0.70;;
16579;SDS011;8402;51.466;6.806;2022-08-06T11:44:23;1.52;;;0.50;;
16579;SDS011;8402;51.466;6.806;2022-08-06T11:47:12;1.10;;;0.60;;
16579;SDS011;8402;51.466;6.806;2022-08-06T11:50:02;0.60;;;0.45;;
16579;SDS011;8402;51.466;6.806;2022-08-06T11:52:52;1.10;;;0.77;;
16579;SDS011;8402;51.466;6.806;2022-08-06T11:55:22;1.13;;;0.50;;
16579;SDS011;8402;51.466;6.806;2022-08-06T12:00:54;1.05;;;0.68;;
16579;SDS011;8402;51.466;6.806;2022-08-06T12:03:37;1.05;;;0.50;;
16579;SDS011;8402;51.466;6.806;2022-08-06T12:09:06;1.42;;;0.60;;
16579;SDS011;8402;51.466;6.806;2022-08-06T12:11:48;1.40;;;0.60;;
16579;SDS011;8402;51.466;6.806;2022-08-06T12:14:36;0.70;;;0.50;;
16579;SDS011;8402;51.466;6.806;2022-08-06T12:17:16;0.40;;;0.40;;
16579;SDS011;8402;51.466;6.806;2022-08-06T12:19:47;3.35;;;0.57;;
16579;SDS011;8402;51.466;6.806;2022-08-06T12:22:28;2.25;;;0.70;;
16579;SDS011;8402;51.466;6.806;2022-08-06T12:24:58;3.05;;;0.90;;
16579;SDS011;8402;51.466;6.806;2022-08-06T12:27:38;0.93;;;0.60;;
16579;SDS011;8402;51.466;6.806;2022-08-06T12:30:19;1.42;;;0.50;;
16579;SDS011;8402;51.466;6.806;2022-08-06T12:33:03;0.60;;;0.60;;
16579;SDS011;8402;51.466;6.806;2022-08-06T12:35:48;0.90;;;0.50;;
16579;SDS011;8402;51.466;6.806;2022-08-06T12:38:17;1.38;;;0.57;;
16579;SDS011;8402;51.466;6.806;2022-08-06T12:40:53;1.75;;;0.73;;
16579;SDS011;8402;51.466;6.806;2022-08-06T12:43:24;1.92;;;0.60;;
16579;SDS011;8402;51.466;6.806;2022-08-06T12:46:08;5.50;;;0.60;;
16579;SDS011;8402;51.466;6.806;2022-08-06T12:48:46;1.92;;;0.57;;
16579;SDS011;8402;51.466;6.806;2022-08-06T12:51:18;0.60;;;0.40;;
16579;SDS011;8402;51.466;6.806;2022-08-06T12:53:53;1.95;;;0.70;;
16579;SDS011;8402;51.466;6.806;2022-08-06T12:56:28;0.98;;;0.60;;
16579;SDS011;8402;51.466;6.806;2022-08-06T12:59:03;0.55;;;0.43;;
16579;SDS011;8402;51.466;6.806;2022-08-06T13:01:48;1.02;;;0.73;;
16579;SDS011;8402;51.466;6.806;2022-08-06T13:04:36;1.33;;;0.50;;
16579;SDS011;8402;51.466;6.806;2022-08-06T13:07:08;0.90;;;0.65;;
16579;SDS011;8402;51.466;6.806;2022-08-06T13:09:40;1.70;;;0.65;;
16579;SDS011;8402;51.466;6.806;2022-08-06T13:12:30;0.82;;;0.52;;
16579;SDS011;8402;51.466;6.806;2022-08-06T13:15:19;3.08;;;0.60;;
16579;SDS011;8402;51.466;6.806;2022-08-06T13:18:02;2.05;;;1.20;;
16579;SDS011;8402;51.466;6.806;2022-08-06T13:20:52;3.20;;;0.60;;
16579;SDS011;8402;51.466;6.806;2022-08-06T13:23:30;3.97;;;2.92;;
16579;SDS011;8402;51.466;6.806;2022-08-06T13:26:12;1.92;;;0.80;;
16579;SDS011;8402;51.466;6.806;2022-08-06T13:29:11;1.40;;;0.60;;
16579;SDS011;8402;51.466;6.806;2022-08-06T13:32:03;0.65;;;0.60;;
16579;SDS011;8402;51.466;6.806;2022-08-06T13:34:53;0.60;;;0.60;;
16579;SDS011;8402;51.466;6.806;2022-08-06T13:37:46;1.33;;;0.52;;
16579;SDS011;8402;51.466;6.806;2022-08-06T13:40:34;1.33;;;0.70;;
16579;SDS011;8402;51.466;6.806;2022-08-06T13:43:17;0.73;;;0.55;;
16579;SDS011;8402;51.466;6.806;2022-08-06T13:46:06;1.80;;;1.27;;
16579;SDS011;8402;51.466;6.806;2022-08-06T13:48:41;0.90;;;0.70;;
16579;SDS011;8402;51.466;6.806;2022-08-06T13:51:11;4.75;;;0.60;;
16579;SDS011;8402;51.466;6.806;2022-08-06T13:53:52;1.73;;;0.60;;
16579;SDS011;8402;51.466;6.806;2022-08-06T13:56:24;2.25;;;0.80;;
16579;SDS011;8402;51.466;6.806;2022-08-06T13:58:55;1.23;;;0.60;;
16579;SDS011;8402;51.466;6.806;2022-08-06T14:01:23;3.22;;;0.60;;
16579;SDS011;8402;51.466;6.806;2022-08-06T14:04:10;1.38;;;0.60;;
16579;SDS011;8402;51.466;6.806;2022-08-06T14:06:39;1.55;;;0.70;;
16579;SDS011;8402;51.466;6.806;2022-08-06T14:09:11;0.75;;;0.60;;
16579;SDS011;8402;51.466;6.806;2022-08-06T14:11:47;0.82;;;0.57;;
16579;SDS011;8402;51.466;6.806;2022-08-06T14:14:20;0.95;;;0.47;;
16579;SDS011;8402;51.466;6.806;2022-08-06T14:16:51;1.40;;;0.60;;
16579;SDS011;8402;51.466;6.806;2022-08-06T14:19:21;1.52;;;0.90;;
16579;SDS011;8402;51.466;6.806;2022-08-06T14:22:09;1.10;;;0.47;;
16579;SDS011;8402;51.466;6.806;2022-08-06T14:24:37;0.68;;;0.50;;
16579;SDS011;8402;51.466;6.806;2022-08-06T14:27:07;0.60;;;0.50;;
16579;SDS011;8402;51.466;6.806;2022-08-06T14:29:41;1.52;;;0.75;;
16579;SDS011;8402;51.466;6.806;2022-08-06T14:32:29;0.60;;;0.50;;
16579;SDS011;8402;51.466;6.806;2022-08-06T14:34:57;0.80;;;0.60;;
16579;SDS011;8402;51.466;6.806;2022-08-06T14:37:30;1.20;;;0.55;;
16579;SDS011;8402;51.466;6.806;2022-08-06T14:40:17;1.63;;;0.88;;
16579;SDS011;8402;51.466;6.806;2022-08-06T14:43:28;1.02;;;0.73;;
16579;SDS011;8402;51.466;6.806;2022-08-06T14:46:23;1.95;;;1.10;;
16579;SDS011;8402;51.466;6.806;2022-08-06T14:48:52;1.80;;;0.80;;
16579;SDS011;8402;51.466;6.806;2022-08-06T14:51:23;2.08;;;0.93;;
16579;SDS011;8402;51.466;6.806;2022-08-06T14:54:12;1.27;;;0.68;;
16579;SDS011;8402;51.466;6.806;2022-08-06T14:56:40;1.77;;;0.73;;
16579;SDS011;8402;51.466;6.806;2022-08-06T14:59:19;0.98;;;0.70;;
16579;SDS011;8402;51.466;6.806;2022-08-06T15:01:48;2.00;;;0.57;;
16579;SDS011;8402;51.466;6.806;2022-08-06T15:04:17;1.65;;;0.80;;
16579;SDS011;8402;51.466;6.806;2022-08-06T15:06:50;0.75;;;0.60;;
16579;SDS011;8402;51.466;6.806;2022-08-06T15:09:24;1.67;;;0.52;;
16579;SDS011;8402;51.466;6.806;2022-08-06T15:12:13;1.33;;;0.60;;
16579;SDS011;8402;51.466;6.806;2022-08-06T15:15:03;1.10;;;0.75;;
16579;SDS011;8402;51.466;6.806;2022-08-06T15:17:39;1.30;;;0.60;;
16579;SDS011;8402;51.466;6.806;2022-08-06T15:20:27;2.63;;;0.70;;
16579;SDS011;8402;51.466;6.806;2022-08-06T15:22:55;2.15;;;0.93;;
16579;SDS011;8402;51.466;6.806;2022-08-06T15:25:25;1.30;;;0.70;;
16579;SDS011;8402;51.466;6.806;2022-08-06T15:28:13;2.78;;;0.90;;
16579;SDS011;8402;51.466;6.806;2022-08-06T15:30:43;1.20;;;0.80;;
16579;SDS011;8402;51.466;6.806;2022-08-06T15:33:13;2.20;;;0.60;;
16579;SDS011;8402;51.466;6.806;2022-08-06T15:35:42;1.17;;;0.80;;
16579;SDS011;8402;51.466;6.806;2022-08-06T15:38:24;1.30;;;0.88;;
16579;SDS011;8402;51.466;6.806;2022-08-06T15:40:58;0.63;;;0.50;;
16579;SDS011;8402;51.466;6.806;2022-08-06T15:43:27;1.75;;;0.50;;
16579;SDS011;8402;51.466;6.806;2022-08-06T15:46:11;2.40;;;0.70;;
16579;SDS011;8402;51.466;6.806;2022-08-06T15:48:54;1.10;;;0.70;;
16579;SDS011;8402;51.466;6.806;2022-08-06T15:51:25;1.45;;;0.80;;
16579;SDS011;8402;51.466;6.806;2022-08-06T15:53:56;0.93;;;0.73;;
16579;SDS011;8402;51.466;6.806;2022-08-06T15:56:25;2.08;;;0.77;;
16579;SDS011;8402;51.466;6.806;2022-08-06T15:59:05;1.30;;;0.68;;
16579;SDS011;8402;51.466;6.806;2022-08-06T16:01:41;1.67;;;0.80;;
16579;SDS011;8402;51.466;6.806;2022-08-06T16:04:29;0.82;;;0.60;;
16579;SDS011;8402;51.466;6.806;2022-08-06T16:07:02;2.83;;;0.75;;
16579;SDS011;8402;51.466;6.806;2022-08-06T16:09:31;3.10;;;0.90;;
16579;SDS011;8402;51.466;6.806;2022-08-06T16:12:20;3.15;;;1.10;;
16579;SDS011;8402;51.466;6.806;2022-08-06T16:14:48;1.30;;;0.80;;
16579;SDS011;8402;51.466;6.806;2022-08-06T16:17:25;2.05;;;0.75;;
16579;SDS011;8402;51.466;6.806;2022-08-06T16:20:14;3.65;;;0.70;;
16579;SDS011;8402;51.466;6.806;2022-08-06T16:22:47;3.70;;;0.80;;